createdAt,value
2019-02-12T00:00:21.842Z,0
2019-02-12T00:01:29.928Z,0
2019-02-12T00:02:37.986Z,0
2019-02-12T00:03:46.038Z,0
2019-02-12T00:04:54.089Z,0
2019-02-12T00:06:02.115Z,0
2019-02-12T00:07:10.205Z,0
2019-02-12T00:08:18.251Z,0
2019-02-12T00:09:26.306Z,0
2019-02-12T00:10:34.380Z,0
2019-02-12T00:11:42.410Z,0
2019-02-12T00:12:50.466Z,0
2019-02-12T00:13:58.520Z,0
2019-02-12T00:15:06.582Z,0
2019-02-12T00:16:14.631Z,0
2019-02-12T00:17:22.688Z,0
2019-02-12T00:18:30.751Z,0
2019-02-12T00:19:38.803Z,0
2019-02-12T00:20:46.853Z,0
2019-02-12T00:21:54.908Z,0
2019-02-12T00:23:02.966Z,0
2019-02-12T00:24:11.020Z,0
2019-02-12T00:25:19.084Z,0
2019-02-12T00:26:27.131Z,0
2019-02-12T00:27:35.179Z,0
2019-02-12T00:28:43.246Z,0
2019-02-12T00:29:51.281Z,0
2019-02-12T00:30:59.348Z,0
2019-02-12T00:32:07.406Z,0
2019-02-12T00:33:15.464Z,0
2019-02-12T00:34:23.514Z,0
2019-02-12T00:35:31.546Z,0
2019-02-12T00:36:39.619Z,0
2019-02-12T00:37:47.683Z,0
2019-02-12T00:38:55.727Z,0
2019-02-12T00:40:03.797Z,0
2019-02-12T00:41:11.819Z,0
2019-02-12T00:42:20.526Z,0
2019-02-12T00:43:27.953Z,0
2019-02-12T00:44:36.002Z,0
2019-02-12T00:45:44.059Z,0
2019-02-12T00:46:52.114Z,0
2019-02-12T00:48:00.168Z,0
2019-02-12T00:49:09.279Z,0
2019-02-12T00:50:16.278Z,0
2019-02-12T00:51:24.334Z,0
2019-02-12T00:52:32.985Z,0
2019-02-12T00:53:40.438Z,0
2019-02-12T00:54:48.766Z,0
2019-02-12T00:55:56.562Z,0
2019-02-12T00:57:04.598Z,0
2019-02-12T00:58:12.666Z,0
2019-02-12T00:59:20.807Z,0
2019-02-12T01:00:29.379Z,0
2019-02-12T01:01:37.160Z,0
2019-02-12T01:02:44.873Z,0
2019-02-12T01:03:52.968Z,0
2019-02-12T01:05:01.468Z,0
2019-02-12T01:06:09.047Z,0
2019-02-12T01:07:17.101Z,0
2019-02-12T01:08:25.150Z,0
2019-02-12T01:09:33.219Z,0
2019-02-12T01:10:41.245Z,0
2019-02-12T01:11:49.307Z,0
2019-02-12T01:12:57.367Z,0
2019-02-12T01:14:05.449Z,0
2019-02-12T01:15:13.486Z,0
2019-02-12T01:16:21.508Z,0
2019-02-12T01:17:29.622Z,0
2019-02-12T01:18:37.659Z,0
2019-02-12T01:19:45.698Z,0
2019-02-12T01:20:53.771Z,0
2019-02-12T01:22:01.791Z,0
2019-02-12T01:23:09.867Z,0
2019-02-12T01:24:17.932Z,0
2019-02-12T01:25:25.980Z,0
2019-02-12T01:26:34.042Z,0
2019-02-12T01:27:42.099Z,0
2019-02-12T01:28:50.147Z,0
2019-02-12T01:29:58.201Z,0
2019-02-12T01:31:06.253Z,0
2019-02-12T01:32:14.310Z,0
2019-02-12T01:33:22.354Z,0
2019-02-12T01:34:30.417Z,0
2019-02-12T01:35:38.473Z,0
2019-02-12T01:36:46.534Z,0
2019-02-12T01:37:54.595Z,0
2019-02-12T01:39:02.641Z,0
2019-02-12T01:40:10.700Z,0
2019-02-12T01:41:18.754Z,0
2019-02-12T01:42:26.800Z,0
2019-02-12T01:43:34.854Z,0
2019-02-12T01:44:42.922Z,0
2019-02-12T01:45:50.977Z,0
2019-02-12T01:46:59.026Z,0
2019-02-12T01:48:07.087Z,0
2019-02-12T01:49:15.147Z,0
2019-02-12T01:50:23.208Z,0
2019-02-12T01:51:35.019Z,0
2019-02-12T01:52:39.313Z,0
2019-02-12T01:53:47.363Z,0
2019-02-12T01:54:55.419Z,0
2019-02-12T01:56:03.478Z,0
2019-02-12T01:57:11.504Z,0
2019-02-12T01:58:19.589Z,0
2019-02-12T01:59:27.648Z,0
2019-02-12T02:00:35.725Z,0
2019-02-12T02:01:43.749Z,0
2019-02-12T02:02:51.779Z,0
2019-02-12T02:03:59.873Z,0
2019-02-12T02:05:07.919Z,0
2019-02-12T02:06:15.966Z,0
2019-02-12T02:07:24.028Z,0
2019-02-12T02:08:32.070Z,0
2019-02-12T02:09:40.146Z,0
2019-02-12T02:10:48.224Z,0
2019-02-12T02:11:56.262Z,0
2019-02-12T02:13:04.311Z,0
2019-02-12T02:14:12.344Z,0
2019-02-12T02:15:20.414Z,0
2019-02-12T02:16:28.533Z,0
2019-02-12T02:17:36.530Z,0
2019-02-12T02:18:44.587Z,0
2019-02-12T02:19:52.648Z,0
2019-02-12T02:21:00.679Z,0
2019-02-12T02:22:08.807Z,0
2019-02-12T02:23:16.803Z,0
2019-02-12T02:24:24.868Z,0
2019-02-12T02:25:32.920Z,0
2019-02-12T02:26:40.974Z,0
2019-02-12T02:27:49.040Z,0
2019-02-12T02:28:57.081Z,0
2019-02-12T02:30:05.158Z,0
2019-02-12T02:31:13.204Z,0
2019-02-12T02:32:21.282Z,0
2019-02-12T02:33:29.358Z,0
2019-02-12T02:34:37.360Z,0
2019-02-12T02:35:45.441Z,0
2019-02-12T02:36:53.488Z,0
2019-02-12T02:38:01.514Z,0
2019-02-12T02:39:09.597Z,0
2019-02-12T02:40:17.660Z,0
2019-02-12T02:41:25.696Z,0
2019-02-12T02:42:33.772Z,0
2019-02-12T02:43:41.832Z,0
2019-02-12T02:44:49.875Z,0
2019-02-12T02:45:57.924Z,0
2019-02-12T02:47:05.994Z,0
2019-02-12T02:48:14.041Z,0
2019-02-12T02:49:22.075Z,0
2019-02-12T02:50:30.144Z,0
2019-02-12T02:51:38.211Z,0
2019-02-12T02:52:46.268Z,0
2019-02-12T02:53:54.327Z,0
2019-02-12T02:55:02.363Z,0
2019-02-12T02:56:10.673Z,0
2019-02-12T02:57:18.513Z,0
2019-02-12T02:58:26.555Z,0
2019-02-12T02:59:34.624Z,0
2019-02-12T03:00:42.662Z,0
2019-02-12T03:01:50.713Z,0
2019-02-12T03:02:58.778Z,0
2019-02-12T03:04:07.928Z,0
2019-02-12T03:05:14.878Z,0
2019-02-12T03:06:22.944Z,0
2019-02-12T03:07:31.002Z,0
2019-02-12T03:08:39.053Z,0
2019-02-12T03:09:47.109Z,0
2019-02-12T03:10:55.160Z,0
2019-02-12T03:12:03.232Z,0
2019-02-12T03:13:11.256Z,0
2019-02-12T03:14:19.329Z,0
2019-02-12T03:15:27.382Z,0
2019-02-12T03:16:35.448Z,0
2019-02-12T03:17:43.523Z,0
2019-02-12T03:18:51.519Z,0
2019-02-12T03:19:59.629Z,0
2019-02-12T03:21:07.667Z,0
2019-02-12T03:22:15.714Z,0
2019-02-12T03:23:23.772Z,0
2019-02-12T03:24:31.821Z,0
2019-02-12T03:25:39.899Z,0
2019-02-12T03:26:47.946Z,0
2019-02-12T03:27:55.984Z,0
2019-02-12T03:29:04.059Z,0
2019-02-12T03:30:12.334Z,0
2019-02-12T03:31:20.167Z,0
2019-02-12T03:32:28.208Z,0
2019-02-12T03:33:36.371Z,0
2019-02-12T03:34:44.319Z,0
2019-02-12T03:35:52.359Z,0
2019-02-12T03:37:00.449Z,0
2019-02-12T03:38:08.517Z,0
2019-02-12T03:39:16.551Z,0
2019-02-12T03:40:24.611Z,0
2019-02-12T03:41:32.656Z,0
2019-02-12T03:42:40.720Z,0
2019-02-12T03:43:48.768Z,0
2019-02-12T03:44:56.831Z,0
2019-02-12T03:46:04.875Z,0
2019-02-12T03:47:12.940Z,0
2019-02-12T03:48:21.295Z,0
2019-02-12T03:49:29.091Z,0
2019-02-12T03:50:37.093Z,0
2019-02-12T03:51:45.164Z,0
2019-02-12T03:52:53.217Z,0
2019-02-12T03:54:01.258Z,0
2019-02-12T03:55:09.319Z,0
2019-02-12T03:56:17.385Z,0
2019-02-12T03:57:25.446Z,0
2019-02-12T03:58:33.487Z,0
2019-02-12T03:59:41.557Z,0
2019-02-12T04:00:49.602Z,0
2019-02-12T04:01:57.689Z,0
2019-02-12T04:03:05.739Z,0
2019-02-12T04:04:13.763Z,0
2019-02-12T04:05:21.802Z,0
2019-02-12T04:06:29.876Z,0
2019-02-12T04:07:37.940Z,0
2019-02-12T04:08:45.999Z,0
2019-02-12T04:09:54.051Z,0
2019-02-12T04:11:02.088Z,0
2019-02-12T04:12:10.198Z,0
2019-02-12T04:13:18.218Z,0
2019-02-12T04:14:26.278Z,0
2019-02-12T04:15:34.340Z,0
2019-02-12T04:16:42.482Z,0
2019-02-12T04:17:50.609Z,0
2019-02-12T04:18:58.478Z,0
2019-02-12T04:20:06.545Z,0
2019-02-12T04:21:14.608Z,0
2019-02-12T04:22:23.180Z,0
2019-02-12T04:23:30.705Z,0
2019-02-12T04:24:38.805Z,0
2019-02-12T04:25:46.823Z,0
2019-02-12T04:26:54.891Z,0
2019-02-12T04:28:02.944Z,0
2019-02-12T04:29:11.014Z,0
2019-02-12T04:30:19.043Z,0
2019-02-12T04:31:27.103Z,0
2019-02-12T04:32:35.168Z,0
2019-02-12T04:33:43.217Z,0
2019-02-12T04:34:51.272Z,0
2019-02-12T04:35:59.334Z,0
2019-02-12T04:37:07.392Z,0
2019-02-12T04:38:15.451Z,0
2019-02-12T04:39:23.497Z,0
2019-02-12T04:40:31.521Z,0
2019-02-12T04:41:39.621Z,0
2019-02-12T04:42:47.664Z,0
2019-02-12T04:43:55.729Z,0
2019-02-12T04:45:03.778Z,0
2019-02-12T04:46:11.802Z,0
2019-02-12T04:47:19.887Z,0
2019-02-12T04:48:27.953Z,0
2019-02-12T04:49:36.008Z,0
2019-02-12T04:50:44.073Z,0
2019-02-12T04:51:52.102Z,0
2019-02-12T04:53:00.158Z,0
2019-02-12T04:54:08.228Z,0
2019-02-12T04:55:16.286Z,0
2019-02-12T04:56:24.338Z,0
2019-02-12T04:57:32.395Z,0
2019-02-12T04:58:40.453Z,0
2019-02-12T04:59:48.495Z,0
2019-02-12T05:00:56.567Z,0
2019-02-12T05:02:04.605Z,0
2019-02-12T05:03:12.778Z,0
2019-02-12T05:04:20.726Z,0
2019-02-12T05:05:28.813Z,0
2019-02-12T05:06:36.845Z,0
2019-02-12T05:07:44.938Z,0
2019-02-12T05:08:52.953Z,0
2019-02-12T05:10:01.011Z,0
2019-02-12T05:11:09.061Z,0
2019-02-12T05:12:17.125Z,0
2019-02-12T05:13:25.176Z,0
2019-02-12T05:14:33.247Z,0
2019-02-12T05:15:41.274Z,0
2019-02-12T05:16:49.347Z,0
2019-02-12T05:17:57.431Z,0
2019-02-12T05:19:05.466Z,0
2019-02-12T05:20:13.522Z,0
2019-02-12T05:21:21.539Z,0
2019-02-12T05:22:29.617Z,0
2019-02-12T05:23:37.702Z,0
2019-02-12T05:24:45.734Z,0
2019-02-12T05:25:53.791Z,0
2019-02-12T05:27:01.818Z,0
2019-02-12T05:28:09.930Z,0
2019-02-12T05:29:18.507Z,0
2019-02-12T05:30:26.021Z,0
2019-02-12T05:31:34.065Z,0
2019-02-12T05:32:42.110Z,0
2019-02-12T05:33:50.663Z,0
2019-02-12T05:34:58.232Z,0
2019-02-12T05:36:06.277Z,0
2019-02-12T05:37:14.357Z,0
2019-02-12T05:38:22.387Z,0
2019-02-12T05:39:30.460Z,0
2019-02-12T05:40:38.515Z,0
2019-02-12T05:41:46.559Z,0
2019-02-12T05:42:54.625Z,0
2019-02-12T05:44:02.676Z,0
2019-02-12T05:45:10.778Z,0
2019-02-12T05:46:18.815Z,0
2019-02-12T05:47:26.846Z,0
2019-02-12T05:48:34.996Z,0
2019-02-12T05:49:43.297Z,0
2019-02-12T05:50:51.014Z,0
2019-02-12T05:51:59.152Z,0
2019-02-12T05:53:07.133Z,0
2019-02-12T05:54:15.181Z,0
2019-02-12T05:55:23.253Z,0
2019-02-12T05:56:31.301Z,0
2019-02-12T05:57:39.362Z,0
2019-02-12T05:58:47.414Z,0
2019-02-12T05:59:55.483Z,0
2019-02-12T06:01:03.534Z,0
2019-02-12T06:02:11.549Z,0
2019-02-12T06:03:19.638Z,0
2019-02-12T06:04:27.692Z,0
2019-02-12T06:05:35.758Z,0
2019-02-12T06:06:43.809Z,0
2019-02-12T06:07:51.845Z,0
2019-02-12T06:08:59.922Z,0
2019-02-12T06:10:07.972Z,0
2019-02-12T06:11:16.057Z,0
2019-02-12T06:12:24.092Z,0
2019-02-12T06:13:32.123Z,0
2019-02-12T06:14:40.288Z,0
2019-02-12T06:15:48.256Z,0
2019-02-12T06:16:56.318Z,0
2019-02-12T06:18:04.382Z,0
2019-02-12T06:19:12.409Z,0
2019-02-12T06:20:20.487Z,0
2019-02-12T06:21:28.535Z,0
2019-02-12T06:22:36.599Z,0
2019-02-12T06:23:44.652Z,0
2019-02-12T06:24:52.712Z,0
2019-02-12T06:26:00.758Z,0
2019-02-12T06:27:08.825Z,0
2019-02-12T06:28:16.861Z,0
2019-02-12T06:29:24.924Z,0
2019-02-12T06:30:32.992Z,0
2019-02-12T06:31:41.057Z,5
2019-02-12T06:32:49.095Z,5
2019-02-12T06:33:57.147Z,5
2019-02-12T06:35:05.203Z,5
2019-02-12T06:36:13.273Z,5
2019-02-12T06:37:21.322Z,5
2019-02-12T06:38:29.374Z,10
2019-02-12T06:39:37.428Z,10
2019-02-12T06:40:45.484Z,10
2019-02-12T06:41:53.542Z,15
2019-02-12T06:43:01.572Z,15
2019-02-12T06:44:09.642Z,15
2019-02-12T06:45:17.715Z,20
2019-02-12T06:46:25.760Z,20
2019-02-12T06:47:33.820Z,20
2019-02-12T06:48:41.853Z,25
2019-02-12T06:49:49.926Z,25
2019-02-12T06:50:58.000Z,25
2019-02-12T06:52:06.044Z,30
2019-02-12T06:53:14.091Z,30
2019-02-12T06:54:22.174Z,35
2019-02-12T06:55:30.203Z,35
2019-02-12T06:56:38.272Z,40
2019-02-12T06:57:46.325Z,40
2019-02-12T06:58:54.377Z,45
2019-02-12T07:00:02.539Z,45
2019-02-12T07:01:10.480Z,50
2019-02-12T07:02:18.546Z,50
2019-02-12T07:03:26.608Z,50
2019-02-12T07:04:34.649Z,50
2019-02-12T07:05:42.712Z,50
2019-02-12T07:06:50.759Z,55
2019-02-12T07:07:58.834Z,55
2019-02-12T07:09:06.880Z,55
2019-02-12T07:10:14.935Z,60
2019-02-12T07:11:22.979Z,65
2019-02-12T07:12:31.056Z,65
2019-02-12T07:13:39.102Z,65
2019-02-12T07:14:47.146Z,70
2019-02-12T07:15:55.212Z,70
2019-02-12T07:17:03.265Z,70
2019-02-12T07:18:11.392Z,70
2019-02-12T07:19:19.361Z,70
2019-02-12T07:20:27.435Z,70
2019-02-12T07:21:35.495Z,75
2019-02-12T07:22:43.541Z,75
2019-02-12T07:23:51.568Z,75
2019-02-12T07:24:59.839Z,75
2019-02-12T07:26:07.703Z,75
2019-02-12T07:27:15.769Z,75
2019-02-12T07:28:23.836Z,75
2019-02-12T07:29:31.860Z,80
2019-02-12T07:30:39.937Z,80
2019-02-12T07:31:47.983Z,85
2019-02-12T07:32:56.053Z,85
2019-02-12T07:34:04.083Z,85
2019-02-12T07:35:12.142Z,90
2019-02-12T07:36:20.211Z,90
2019-02-12T07:37:28.267Z,90
2019-02-12T07:38:36.304Z,95
2019-02-12T07:39:44.376Z,95
2019-02-12T07:40:52.421Z,100
2019-02-12T07:42:00.497Z,100
2019-02-12T07:43:08.648Z,100
2019-02-12T07:44:16.602Z,105
2019-02-12T07:45:24.632Z,105
2019-02-12T07:46:32.694Z,110
2019-02-12T07:47:40.769Z,110
2019-02-12T07:48:48.831Z,110
2019-02-12T07:49:56.864Z,110
2019-02-12T07:51:04.932Z,110
2019-02-12T07:52:12.983Z,110
2019-02-12T07:53:30.577Z,110
2019-02-12T07:54:29.087Z,110
2019-02-12T07:55:37.155Z,110
2019-02-12T07:56:45.196Z,115
2019-02-12T07:57:53.260Z,115
2019-02-12T07:59:01.313Z,115
2019-02-12T08:00:09.371Z,115
2019-02-12T08:01:17.411Z,130
2019-02-12T08:02:25.487Z,155
2019-02-12T08:03:33.547Z,175
2019-02-12T08:04:41.590Z,150
2019-02-12T08:05:49.656Z,155
2019-02-12T08:06:57.705Z,160
2019-02-12T08:08:05.766Z,170
2019-02-12T08:09:13.826Z,175
2019-02-12T08:10:21.852Z,185
2019-02-12T08:11:29.916Z,190
2019-02-12T08:12:37.991Z,180
2019-02-12T08:13:46.047Z,195
2019-02-12T08:14:54.091Z,200
2019-02-12T08:16:02.144Z,220
2019-02-12T08:17:10.194Z,245
2019-02-12T08:18:18.277Z,265
2019-02-12T08:19:26.307Z,275
2019-02-12T08:20:34.390Z,300
2019-02-12T08:21:42.418Z,335
2019-02-12T08:22:50.486Z,335
2019-02-12T08:23:58.552Z,315
2019-02-12T08:25:06.607Z,330
2019-02-12T08:26:14.655Z,320
2019-02-12T08:27:22.701Z,280
2019-02-12T08:28:30.780Z,265
2019-02-12T08:29:38.842Z,265
2019-02-12T08:30:46.895Z,250
2019-02-12T08:31:54.946Z,245
2019-02-12T08:33:03.000Z,245
2019-02-12T08:34:11.073Z,300
2019-02-12T08:35:19.140Z,290
2019-02-12T08:36:27.201Z,265
2019-02-12T08:37:35.248Z,270
2019-02-12T08:38:43.297Z,275
2019-02-12T08:39:51.485Z,300
2019-02-12T08:40:59.412Z,300
2019-02-12T08:42:07.473Z,290
2019-02-12T08:43:15.525Z,285
2019-02-12T08:44:23.585Z,285
2019-02-12T08:45:31.654Z,275
2019-02-12T08:46:39.689Z,250
2019-02-12T08:47:47.779Z,235
2019-02-12T08:48:55.812Z,245
2019-02-12T08:50:03.894Z,230
2019-02-12T08:51:11.991Z,250
2019-02-12T08:52:19.989Z,245
2019-02-12T08:53:28.050Z,240
2019-02-12T08:54:36.103Z,250
2019-02-12T08:55:44.432Z,255
2019-02-12T08:56:52.953Z,245
2019-02-12T08:58:00.281Z,240
2019-02-12T08:59:08.350Z,240
2019-02-12T09:00:16.390Z,235
2019-02-12T09:01:24.459Z,245
2019-02-12T09:02:32.608Z,235
2019-02-12T09:03:40.987Z,235
2019-02-12T09:04:48.685Z,225
2019-02-12T09:05:56.690Z,220
2019-02-12T09:07:04.745Z,225
2019-02-12T09:08:12.826Z,225
2019-02-12T09:09:20.873Z,230
2019-02-12T09:10:28.934Z,240
2019-02-12T09:11:36.982Z,240
2019-02-12T09:12:45.087Z,245
2019-02-12T09:13:53.102Z,255
2019-02-12T09:15:01.177Z,270
2019-02-12T09:16:09.198Z,285
2019-02-12T09:17:17.290Z,295
2019-02-12T09:18:25.336Z,295
2019-02-12T09:19:33.532Z,315
2019-02-12T09:20:41.449Z,300
2019-02-12T09:21:49.503Z,310
2019-02-12T09:22:57.566Z,325
2019-02-12T09:24:05.634Z,325
2019-02-12T09:25:13.693Z,320
2019-02-12T09:26:21.851Z,315
2019-02-12T09:27:29.812Z,305
2019-02-12T09:28:37.895Z,290
2019-02-12T09:29:45.948Z,285
2019-02-12T09:30:53.981Z,285
2019-02-12T09:32:02.023Z,270
2019-02-12T09:33:10.117Z,270
2019-02-12T09:34:18.182Z,295
2019-02-12T09:35:26.260Z,345
2019-02-12T09:36:34.289Z,350
2019-02-12T09:37:42.325Z,365
2019-02-12T09:38:50.398Z,380
2019-02-12T09:39:58.461Z,375
2019-02-12T09:41:06.502Z,355
2019-02-12T09:42:14.587Z,335
2019-02-12T09:43:22.637Z,290
2019-02-12T09:44:30.697Z,275
2019-02-12T09:45:38.776Z,285
2019-02-12T09:46:46.834Z,305
2019-02-12T09:47:54.883Z,310
2019-02-12T09:49:02.943Z,335
2019-02-12T09:50:10.990Z,350
2019-02-12T09:51:19.065Z,375
2019-02-12T09:52:27.145Z,375
2019-02-12T09:53:35.170Z,360
2019-02-12T09:54:43.245Z,350
2019-02-12T09:55:51.345Z,350
2019-02-12T09:56:59.366Z,350
2019-02-12T09:58:07.416Z,345
2019-02-12T09:59:15.481Z,330
2019-02-12T10:00:23.544Z,345
2019-02-12T10:01:31.584Z,360
2019-02-12T10:02:39.649Z,360
2019-02-12T10:03:47.742Z,355
2019-02-12T10:04:55.786Z,340
2019-02-12T10:06:03.833Z,345
2019-02-12T10:07:11.935Z,370
2019-02-12T10:08:19.962Z,405
2019-02-12T10:09:28.019Z,445
2019-02-12T10:10:36.087Z,445
2019-02-12T10:11:44.150Z,440
2019-02-12T10:12:52.415Z,420
2019-02-12T10:14:00.264Z,415
2019-02-12T10:15:08.349Z,415
2019-02-12T10:16:16.385Z,415
2019-02-12T10:17:24.460Z,395
2019-02-12T10:18:32.524Z,395
2019-02-12T10:19:40.570Z,395
2019-02-12T10:20:48.636Z,390
2019-02-12T10:21:56.687Z,380
2019-02-12T10:23:06.256Z,380
2019-02-12T10:24:19.509Z,380
2019-02-12T10:25:20.876Z,365
2019-02-12T10:26:29.143Z,350
2019-02-12T10:27:37.052Z,345
2019-02-12T10:28:48.739Z,355
2019-02-12T10:29:53.215Z,365
2019-02-12T10:31:01.182Z,365
2019-02-12T10:32:09.253Z,365
2019-02-12T10:33:17.747Z,370
2019-02-12T10:34:25.389Z,370
2019-02-12T10:35:33.426Z,370
2019-02-12T10:36:41.484Z,375
2019-02-12T10:37:49.544Z,365
2019-02-12T10:38:57.650Z,365
2019-02-12T10:40:05.663Z,365
2019-02-12T10:41:13.726Z,375
2019-02-12T10:42:21.776Z,385
2019-02-12T10:43:30.225Z,375
2019-02-12T10:44:37.919Z,375
2019-02-12T10:45:45.989Z,380
2019-02-12T10:46:54.044Z,375
2019-02-12T10:48:02.183Z,385
2019-02-12T10:49:10.163Z,390
2019-02-12T10:50:18.260Z,400
2019-02-12T10:51:26.322Z,415
2019-02-12T10:52:34.332Z,425
2019-02-12T10:53:42.489Z,410
2019-02-12T10:54:50.490Z,400
2019-02-12T10:55:58.513Z,395
2019-02-12T10:57:06.589Z,380
2019-02-12T10:58:14.668Z,350
2019-02-12T10:59:22.722Z,320
2019-02-12T11:00:30.767Z,300
2019-02-12T11:01:38.830Z,305
2019-02-12T11:02:46.884Z,330
2019-02-12T11:03:54.969Z,360
2019-02-12T11:05:03.030Z,365
2019-02-12T11:06:11.085Z,355
2019-02-12T11:07:19.162Z,335
2019-02-12T11:08:27.206Z,345
2019-02-12T11:09:35.288Z,375
2019-02-12T11:10:45.045Z,390
2019-02-12T11:11:51.371Z,395
2019-02-12T11:12:59.455Z,395
2019-02-12T11:14:07.526Z,385
2019-02-12T11:15:15.572Z,370
2019-02-12T11:16:23.636Z,350
2019-02-12T11:17:31.683Z,330
2019-02-12T11:18:39.791Z,335
2019-02-12T11:19:47.857Z,340
2019-02-12T11:20:55.929Z,335
2019-02-12T11:22:03.994Z,325
2019-02-12T11:23:11.993Z,310
2019-02-12T11:24:20.070Z,290
2019-02-12T11:25:28.129Z,310
2019-02-12T11:26:36.194Z,345
2019-02-12T11:27:44.252Z,390
2019-02-12T11:28:52.296Z,405
2019-02-12T11:30:00.381Z,410
2019-02-12T11:31:08.440Z,375
2019-02-12T11:32:16.490Z,350
2019-02-12T11:33:24.568Z,335
2019-02-12T11:34:32.614Z,320
2019-02-12T11:35:40.698Z,325
2019-02-12T11:36:48.757Z,345
2019-02-12T11:37:56.796Z,375
2019-02-12T11:39:04.874Z,385
2019-02-12T11:40:13.435Z,405
2019-02-12T11:41:20.995Z,425
2019-02-12T11:42:29.059Z,450
2019-02-12T11:43:37.160Z,440
2019-02-12T11:44:45.182Z,415
2019-02-12T11:45:53.223Z,395
2019-02-12T11:47:01.292Z,400
2019-02-12T11:48:09.367Z,385
2019-02-12T11:49:17.434Z,360
2019-02-12T11:50:25.493Z,350
2019-02-12T11:51:33.544Z,350
2019-02-12T11:52:41.583Z,335
2019-02-12T11:53:49.686Z,300
2019-02-12T11:54:57.786Z,265
2019-02-12T11:56:05.783Z,240
2019-02-12T11:57:13.862Z,245
2019-02-12T11:58:21.905Z,245
2019-02-12T11:59:29.984Z,270
2019-02-12T12:00:38.258Z,255
2019-02-12T12:01:46.102Z,240
2019-02-12T12:02:54.166Z,220
2019-02-12T12:04:02.199Z,235
2019-02-12T12:05:10.284Z,260
2019-02-12T12:06:18.348Z,305
2019-02-12T12:07:26.412Z,330
2019-02-12T12:08:34.474Z,330
2019-02-12T12:09:42.556Z,330
2019-02-12T12:10:50.600Z,335
2019-02-12T12:11:58.671Z,345
2019-02-12T12:13:06.729Z,350
2019-02-12T12:14:14.785Z,335
2019-02-12T12:15:22.881Z,345
2019-02-12T12:16:30.903Z,325
2019-02-12T12:17:38.985Z,300
2019-02-12T12:18:47.030Z,290
2019-02-12T12:19:55.109Z,265
2019-02-12T12:21:03.162Z,270
2019-02-12T12:22:11.193Z,275
2019-02-12T12:23:19.270Z,295
2019-02-12T12:24:27.347Z,295
2019-02-12T12:25:35.402Z,265
2019-02-12T12:26:43.458Z,250
2019-02-12T12:27:51.491Z,245
2019-02-12T12:28:59.574Z,245
2019-02-12T12:30:07.653Z,250
2019-02-12T12:31:15.698Z,265
2019-02-12T12:32:23.756Z,280
2019-02-12T12:33:31.792Z,290
2019-02-12T12:34:39.885Z,300
2019-02-12T12:35:47.947Z,310
2019-02-12T12:36:55.993Z,325
2019-02-12T12:38:04.081Z,335
2019-02-12T12:39:12.104Z,325
2019-02-12T12:40:20.180Z,315
2019-02-12T12:41:28.257Z,300
2019-02-12T12:42:36.305Z,290
2019-02-12T12:43:44.373Z,280
2019-02-12T12:44:52.413Z,275
2019-02-12T12:46:00.474Z,285
2019-02-12T12:47:08.577Z,295
2019-02-12T12:48:16.599Z,310
2019-02-12T12:49:26.853Z,315
2019-02-12T12:50:32.733Z,315
2019-02-12T12:51:40.797Z,315
2019-02-12T12:52:48.864Z,305
2019-02-12T12:53:56.931Z,320
2019-02-12T12:55:04.976Z,325
2019-02-12T12:56:13.043Z,340
2019-02-12T12:57:21.090Z,350
2019-02-12T12:58:29.154Z,345
2019-02-12T12:59:37.200Z,340
2019-02-12T13:00:45.365Z,325
2019-02-12T13:01:53.353Z,300
2019-02-12T13:03:01.390Z,275
2019-02-12T13:04:09.456Z,245
2019-02-12T13:05:17.515Z,230
2019-02-12T13:06:25.574Z,215
2019-02-12T13:07:33.651Z,205
2019-02-12T13:08:41.683Z,190
2019-02-12T13:09:49.776Z,185
2019-02-12T13:10:57.821Z,185
2019-02-12T13:12:05.890Z,190
2019-02-12T13:13:13.947Z,190
2019-02-12T13:14:21.982Z,200
2019-02-12T13:15:30.081Z,210
2019-02-12T13:16:38.115Z,220
2019-02-12T13:17:46.185Z,235
2019-02-12T13:18:54.253Z,250
2019-02-12T13:20:02.294Z,265
2019-02-12T13:21:10.372Z,265
2019-02-12T13:22:18.427Z,285
2019-02-12T13:23:26.487Z,325
2019-02-12T13:24:34.550Z,345
2019-02-12T13:25:42.599Z,360
2019-02-12T13:26:50.731Z,370
2019-02-12T13:27:58.744Z,355
2019-02-12T13:29:06.798Z,330
2019-02-12T13:30:14.852Z,320
2019-02-12T13:31:22.909Z,320
2019-02-12T13:32:30.967Z,310
2019-02-12T13:33:39.054Z,295
2019-02-12T13:34:47.094Z,285
2019-02-12T13:35:55.168Z,265
2019-02-12T13:37:03.211Z,255
2019-02-12T13:38:11.289Z,250
2019-02-12T13:39:19.341Z,250
2019-02-12T13:40:27.386Z,240
2019-02-12T13:41:35.460Z,235
2019-02-12T13:42:43.513Z,240
2019-02-12T13:43:51.556Z,235
2019-02-12T13:44:59.642Z,230
2019-02-12T13:46:07.701Z,230
2019-02-12T13:47:15.992Z,235
2019-02-12T13:48:23.897Z,240
2019-02-12T13:49:31.877Z,245
2019-02-12T13:50:39.954Z,245
2019-02-12T13:51:48.014Z,245
2019-02-12T13:52:56.067Z,235
2019-02-12T13:54:04.839Z,225
2019-02-12T13:55:17.127Z,215
2019-02-12T13:56:20.254Z,205
2019-02-12T13:57:28.303Z,205
2019-02-12T13:58:36.378Z,205
2019-02-12T13:59:44.427Z,215
2019-02-12T14:00:52.528Z,235
2019-02-12T14:02:00.554Z,250
2019-02-12T14:03:08.595Z,255
2019-02-12T14:04:16.697Z,250
2019-02-12T14:05:24.742Z,245
2019-02-12T14:06:32.811Z,240
2019-02-12T14:07:40.861Z,240
2019-02-12T14:08:48.911Z,250
2019-02-12T14:09:56.973Z,240
2019-02-12T14:11:05.033Z,245
2019-02-12T14:12:13.082Z,240
2019-02-12T14:13:21.155Z,240
2019-02-12T14:14:29.212Z,235
2019-02-12T14:15:37.274Z,235
2019-02-12T14:16:45.337Z,225
2019-02-12T14:17:53.389Z,225
2019-02-12T14:19:01.473Z,220
2019-02-12T14:20:09.503Z,215
2019-02-12T14:21:17.604Z,220
2019-02-12T14:22:25.639Z,220
2019-02-12T14:23:33.703Z,215
2019-02-12T14:24:41.770Z,210
2019-02-12T14:25:49.807Z,200
2019-02-12T14:26:57.879Z,195
2019-02-12T14:28:05.940Z,185
2019-02-12T14:29:13.991Z,180
2019-02-12T14:30:22.018Z,170
2019-02-12T14:31:30.099Z,165
2019-02-12T14:32:38.207Z,155
2019-02-12T14:33:46.231Z,145
2019-02-12T14:34:54.361Z,135
2019-02-12T14:36:02.326Z,135
2019-02-12T14:37:10.403Z,130
2019-02-12T14:38:18.469Z,130
2019-02-12T14:39:26.550Z,130
2019-02-12T14:40:34.600Z,130
2019-02-12T14:41:42.664Z,135
2019-02-12T14:42:51.134Z,130
2019-02-12T14:43:58.770Z,130
2019-02-12T14:45:06.829Z,130
2019-02-12T14:46:14.936Z,130
2019-02-12T14:47:22.946Z,130
2019-02-12T14:48:31.013Z,130
2019-02-12T14:49:39.065Z,130
2019-02-12T14:50:47.131Z,130
2019-02-12T14:51:55.184Z,130
2019-02-12T14:53:03.245Z,125
2019-02-12T14:54:11.294Z,120
2019-02-12T14:55:19.368Z,110
2019-02-12T14:56:27.404Z,100
2019-02-12T14:57:35.482Z,90
2019-02-12T14:58:43.539Z,90
2019-02-12T14:59:51.679Z,85
2019-02-12T15:00:59.676Z,85
2019-02-12T15:02:07.782Z,85
2019-02-12T15:03:15.777Z,85
2019-02-12T15:04:23.850Z,85
2019-02-12T15:05:31.864Z,85
2019-02-12T15:06:39.957Z,85
2019-02-12T15:07:48.010Z,85
2019-02-12T15:08:56.076Z,85
2019-02-12T15:10:04.120Z,85
2019-02-12T15:11:12.223Z,85
2019-02-12T15:12:20.257Z,85
2019-02-12T15:13:28.310Z,85
2019-02-12T15:14:36.366Z,90
2019-02-12T15:15:44.429Z,90
2019-02-12T15:16:52.472Z,90
2019-02-12T15:18:00.547Z,90
2019-02-12T15:19:08.601Z,90
2019-02-12T15:20:16.640Z,90
2019-02-12T15:21:24.706Z,85
2019-02-12T15:22:32.793Z,80
2019-02-12T15:23:40.869Z,80
2019-02-12T15:24:48.892Z,80
2019-02-12T15:25:56.952Z,75
2019-02-12T15:27:05.022Z,70
2019-02-12T15:28:13.062Z,70
2019-02-12T15:29:21.127Z,70
2019-02-12T15:30:29.184Z,70
2019-02-12T15:31:37.251Z,65
2019-02-12T15:32:45.291Z,65
2019-02-12T15:33:53.354Z,65
2019-02-12T15:35:01.386Z,60
2019-02-12T15:36:09.460Z,60
2019-02-12T15:37:17.545Z,60
2019-02-12T15:38:25.576Z,60
2019-02-12T15:39:33.644Z,60
2019-02-12T15:40:41.679Z,60
2019-02-12T15:41:49.767Z,55
2019-02-12T15:42:57.824Z,55
2019-02-12T15:44:05.876Z,55
2019-02-12T15:45:13.941Z,55
2019-02-12T15:46:21.958Z,55
2019-02-12T15:47:30.061Z,55
2019-02-12T15:48:38.119Z,55
2019-02-12T15:49:46.172Z,55
2019-02-12T15:50:54.240Z,55
2019-02-12T15:52:02.266Z,55
2019-02-12T15:53:10.361Z,50
2019-02-12T15:54:18.652Z,50
2019-02-12T15:55:26.459Z,50
2019-02-12T15:56:34.527Z,45
2019-02-12T15:57:43.611Z,45
2019-02-12T15:58:51.676Z,45
2019-02-12T15:59:58.689Z,45
2019-02-12T16:01:06.747Z,40
2019-02-12T16:02:14.802Z,40
2019-02-12T16:03:22.877Z,40
2019-02-12T16:04:30.923Z,40
2019-02-12T16:05:38.978Z,40
2019-02-12T16:06:47.035Z,35
2019-02-12T16:07:55.099Z,35
2019-02-12T16:09:03.155Z,35